Time;durP1;ratioP1;P1;durP2;ratioP2;P2;SDS_P1;SDS_P2;PMS_P1;PMS_P2;Temp;Humidity;BMP_temperature;BMP_pressure;BME280_temperature;BME280_humidity;BME280_pressure;Samples;Min_cycle;Max_cycle;Signal;HPM_P1;HPM_P2
2022/11/17 00:00:25;;;;;;;12.32;8.20;;;;;;;;;;4998789;28;20049;-74
2022/11/17 00:02:51;;;;;;;10.13;7.38;;;;;;;;;;5000048;28;20061;-73
2022/11/17 00:05:17;;;;;;;10.90;6.80;;;;;;;;;;5015746;28;20041;-74
2022/11/17 00:07:44;;;;;;;9.98;7.70;;;;;;;;;;5000954;28;20042;-74
2022/11/17 00:10:10;;;;;;;14.18;7.80;;;;;;;;;;4999228;28;20054;-73
2022/11/17 00:15:20;;;;;;;13.45;7.80;;;;;;;;;;5000864;28;20061;-73
2022/11/17 00:21:17;;;;;;;10.32;7.25;;;;;;;;;;4996523;28;20069;-74
2022/11/17 00:23:24;;;;;;;9.63;7.05;;;;;;;;;;4999899;28;20414;-75
2022/11/17 00:25:49;;;;;;;8.45;6.72;;;;;;;;;;5000956;28;20042;-73
2022/11/17 00:28:15;;;;;;;10.75;7.93;;;;;;;;;;4999050;28;20096;-74
2022/11/17 00:36:08;;;;;;;7.80;6.50;;;;;;;;;;5004508;28;20057;-73
2022/11/17 00:38:34;;;;;;;8.13;6.30;;;;;;;;;;5003643;28;20050;-73
2022/11/17 00:40:59;;;;;;;7.00;5.78;;;;;;;;;;5004141;28;20133;-74
2022/11/17 00:43:24;;;;;;;6.18;5.20;;;;;;;;;;4994489;28;20052;-74
2022/11/17 00:45:50;;;;;;;5.10;4.60;;;;;;;;;;5002480;28;20061;-73
2022/11/17 00:48:15;;;;;;;6.10;5.07;;;;;;;;;;5003920;28;20111;-73
2022/11/17 00:50:41;;;;;;;17.88;5.20;;;;;;;;;;5002042;28;20573;-73
2022/11/17 00:53:06;;;;;;;4.80;4.18;;;;;;;;;;5003111;28;20178;-73
2022/11/17 00:55:32;;;;;;;5.55;5.05;;;;;;;;;;5002802;28;20058;-74
2022/11/17 00:57:57;;;;;;;13.35;4.88;;;;;;;;;;5002467;28;20052;-74
2022/11/17 01:00:23;;;;;;;9.20;5.10;;;;;;;;;;4986428;28;20060;-74
2022/11/17 01:02:48;;;;;;;5.70;4.90;;;;;;;;;;5003311;28;20454;-74
2022/11/17 01:05:14;;;;;;;7.78;5.43;;;;;;;;;;5003222;28;20057;-73
2022/11/17 01:07:39;;;;;;;8.68;6.38;;;;;;;;;;5003901;28;20128;-73
2022/11/17 01:10:05;;;;;;;8.43;6.80;;;;;;;;;;5018643;28;20425;-73
2022/11/17 01:12:30;;;;;;;10.93;7.53;;;;;;;;;;5003140;28;20050;-74
2022/11/17 01:14:56;;;;;;;11.15;6.68;;;;;;;;;;5002902;28;20411;-74
2022/11/17 01:17:21;;;;;;;36.13;6.47;;;;;;;;;;5003891;28;20053;-70
2022/11/17 01:19:47;;;;;;;19.60;5.75;;;;;;;;;;5002441;28;20518;-70
2022/11/17 01:22:13;;;;;;;17.67;5.93;;;;;;;;;;5003446;28;20045;-70
2022/11/17 01:24:38;;;;;;;12.27;4.82;;;;;;;;;;5003217;28;20054;-70
2022/11/17 01:27:04;;;;;;;10.80;6.00;;;;;;;;;;5001875;28;20057;-70
2022/11/17 01:29:29;;;;;;;7.07;5.78;;;;;;;;;;5000612;28;20053;-70
2022/11/17 01:31:54;;;;;;;8.15;6.18;;;;;;;;;;5002141;28;20048;-71
2022/11/17 01:34:20;;;;;;;8.60;6.30;;;;;;;;;;4969314;28;20123;-70
2022/11/17 01:39:30;;;;;;;7.63;5.45;;;;;;;;;;5001622;28;20061;-71
2022/11/17 01:41:56;;;;;;;6.10;5.28;;;;;;;;;;5003540;28;20049;-71
2022/11/17 01:44:34;;;;;;;7.28;5.25;;;;;;;;;;5002971;28;20054;-72
2022/11/17 01:47:00;;;;;;;6.28;5.43;;;;;;;;;;4983862;28;20056;-70
2022/11/17 01:49:27;;;;;;;5.90;4.97;;;;;;;;;;5002342;28;20046;-72
2022/11/17 01:52:01;;;;;;;5.97;5.38;;;;;;;;;;5003231;28;20046;-71
2022/11/17 01:54:28;;;;;;;6.50;5.50;;;;;;;;;;5001108;28;20196;-72
2022/11/17 01:57:01;;;;;;;7.53;5.63;;;;;;;;;;5001736;28;20141;-72
2022/11/17 01:59:26;;;;;;;;;;;;;;;;;;5001905;28;20140;-71
2022/11/17 02:01:56;;;;;;;5.95;5.35;;;;;;;;;;5002143;28;20040;-72
2022/11/17 02:04:28;;;;;;;8.93;5.55;;;;;;;;;;5017669;28;20463;-72
2022/11/17 02:07:00;;;;;;;8.35;6.25;;;;;;;;;;5001425;28;20057;-72
2022/11/17 02:09:26;;;;;;;;;;;;;;;;;;5003209;28;20498;-72
2022/11/17 02:11:55;;;;;;;7.38;4.80;;;;;;;;;;5000720;28;20094;-72
2022/11/17 02:14:20;;;;;;;6.40;5.05;;;;;;;;;;5001047;28;20049;-72
2022/11/17 02:16:45;;;;;;;7.20;5.32;;;;;;;;;;5002394;28;20041;-72
2022/11/17 02:19:14;;;;;;;10.32;6.35;;;;;;;;;;5002383;28;20056;-70
2022/11/17 02:22:17;;;;;;;7.72;5.85;;;;;;;;;;5017379;28;20046;-70
2022/11/17 02:25:00;;;;;;;;;;;;;;;;;;5002569;28;20038;-70
2022/11/17 02:27:38;;;;;;;8.43;6.70;;;;;;;;;;5002513;28;19921;-70
2022/11/17 02:30:06;;;;;;;8.90;7.18;;;;;;;;;;5002374;28;20128;-69
2022/11/17 02:32:54;;;;;;;9.88;7.57;;;;;;;;;;5001270;28;20042;-69
2022/11/17 02:35:36;;;;;;;12.88;9.02;;;;;;;;;;4988947;28;20569;-71
2022/11/17 02:38:35;;;;;;;13.45;9.45;;;;;;;;;;5002331;28;20049;-71
2022/11/17 02:41:12;;;;;;;11.10;8.00;;;;;;;;;;4947984;28;20049;-72
2022/11/17 02:44:10;;;;;;;12.23;8.80;;;;;;;;;;5002278;28;20088;-72
2022/11/17 02:46:58;;;;;;;17.05;10.63;;;;;;;;;;4979884;28;20068;-72
2022/11/17 02:49:32;;;;;;;15.50;9.55;;;;;;;;;;5001299;28;20124;-71
2022/11/17 02:51:59;;;;;;;11.02;7.80;;;;;;;;;;5001011;28;20582;-70
2022/11/17 02:54:27;;;;;;;10.68;7.97;;;;;;;;;;5002105;28;20041;-71
2022/11/17 02:56:53;;;;;;;11.07;8.35;;;;;;;;;;4991029;28;20137;-72
2022/11/17 02:59:24;;;;;;;11.52;7.60;;;;;;;;;;5001573;28;20062;-72
2022/11/17 03:02:11;;;;;;;10.80;8.73;;;;;;;;;;5001749;28;20928;-72
2022/11/17 03:04:56;;;;;;;10.73;7.45;;;;;;;;;;4992184;28;20049;-73
2022/11/17 03:07:39;;;;;;;9.35;6.57;;;;;;;;;;5000722;28;20050;-72
2022/11/17 03:10:17;;;;;;;8.73;6.10;;;;;;;;;;4999702;28;20544;-72
2022/11/17 03:13:00;;;;;;;8.13;6.38;;;;;;;;;;5001441;28;20518;-72
2022/11/17 03:15:51;;;;;;;11.20;6.47;;;;;;;;;;5001263;28;20126;-71
2022/11/17 03:18:22;;;;;;;10.85;6.22;;;;;;;;;;4962991;28;20406;-71
2022/11/17 03:21:09;;;;;;;10.30;7.03;;;;;;;;;;5000834;28;20123;-73
2022/11/17 03:23:42;;;;;;;11.00;8.00;;;;;;;;;;5001355;28;20104;-73
2022/11/17 03:26:12;;;;;;;11.35;8.20;;;;;;;;;;5001747;28;20045;-73
2022/11/17 03:28:39;;;;;;;12.40;8.43;;;;;;;;;;4999944;28;20042;-73
2022/11/17 03:31:08;;;;;;;12.40;8.43;;;;;;;;;;4999748;28;20557;-73
2022/11/17 03:33:35;;;;;;;10.10;7.10;;;;;;;;;;5016206;28;20578;-70
2022/11/17 03:36:25;;;;;;;10.20;7.72;;;;;;;;;;5001349;28;20081;-72
2022/11/17 03:39:07;;;;;;;11.60;7.72;;;;;;;;;;5015466;28;21035;-70
2022/11/17 03:41:38;;;;;;;12.38;8.27;;;;;;;;;;5000702;28;20129;-70
2022/11/17 03:44:05;;;;;;;10.25;8.30;;;;;;;;;;5001382;28;20056;-72
2022/11/17 03:46:33;;;;;;;9.57;7.78;;;;;;;;;;5000099;28;20049;-72
2022/11/17 03:49:04;;;;;;;11.55;7.28;;;;;;;;;;5000084;28;20042;-72
2022/11/17 03:51:32;;;;;;;9.80;7.90;;;;;;;;;;4991470;28;20080;-72
2022/11/17 03:53:57;;;;;;;10.30;7.47;;;;;;;;;;5001287;28;20155;-72
2022/11/17 03:56:48;;;;;;;9.32;7.47;;;;;;;;;;4995714;28;20490;-72
2022/11/17 03:59:35;;;;;;;8.77;7.22;;;;;;;;;;4998798;28;20144;-72
2022/11/17 04:02:01;;;;;;;10.30;7.22;;;;;;;;;;4995156;28;20046;-72
2022/11/17 04:05:04;;;;;;;8.27;6.78;;;;;;;;;;5000211;28;20050;-71
2022/11/17 04:07:12;;;;;;;6.50;4.95;;;;;;;;;;4984000;28;20058;-71
2022/11/17 04:09:38;;;;;;;6.88;5.75;;;;;;;;;;5000728;28;20046;-71
2022/11/17 04:17:31;;;;;;;5.63;4.53;;;;;;;;;;5000365;28;20089;-71
2022/11/17 04:19:56;;;;;;;9.02;5.45;;;;;;;;;;5000570;28;20084;-71
2022/11/17 04:22:22;;;;;;;8.55;5.78;;;;;;;;;;5000428;28;20485;-71
2022/11/17 04:24:47;;;;;;;8.02;6.03;;;;;;;;;;4990205;28;20045;-71
2022/11/17 04:29:57;;;;;;;6.57;5.47;;;;;;;;;;4999094;28;20124;-71
2022/11/17 04:32:22;;;;;;;8.15;4.93;;;;;;;;;;4999008;28;20775;-71
2022/11/17 04:34:48;;;;;;;7.70;5.38;;;;;;;;;;4999143;28;20127;-70
2022/11/17 04:37:16;;;;;;;6.15;5.20;;;;;;;;;;4999597;28;20046;-70
2022/11/17 04:39:43;;;;;;;7.82;4.47;;;;;;;;;;5000355;28;20111;-70
2022/11/17 04:42:09;;;;;;;5.47;4.70;;;;;;;;;;5000506;28;20038;-70
2022/11/17 04:44:34;;;;;;;6.10;4.95;;;;;;;;;;4999876;28;20045;-69
2022/11/17 04:47:02;;;;;;;4.82;4.32;;;;;;;;;;4996689;28;20045;-71
2022/11/17 04:49:29;;;;;;;4.97;3.75;;;;;;;;;;4999349;28;20042;-71
2022/11/17 04:51:55;;;;;;;5.75;4.97;;;;;;;;;;4998416;28;20129;-71
2022/11/17 04:54:23;;;;;;;8.43;5.57;;;;;;;;;;4999859;28;20140;-74
2022/11/17 04:56:50;;;;;;;3.33;3.03;;;;;;;;;;4999014;28;20068;-75
2022/11/17 04:59:16;;;;;;;5.75;5.10;;;;;;;;;;4997478;28;20045;-74
2022/11/17 05:01:41;;;;;;;4.97;4.15;;;;;;;;;;4999646;28;20107;-74
2022/11/17 05:04:08;;;;;;;7.07;4.30;;;;;;;;;;5014483;28;20410;-74
2022/11/17 05:06:37;;;;;;;6.15;4.75;;;;;;;;;;4998440;28;20065;-74
2022/11/17 05:09:06;;;;;;;6.95;5.03;;;;;;;;;;4997232;28;20475;-74
2022/11/17 05:14:19;;;;;;;5.93;4.93;;;;;;;;;;4999316;28;20383;-74
2022/11/17 05:19:30;;;;;;;7.72;5.20;;;;;;;;;;4999968;28;20045;-74
2022/11/17 05:21:56;;;;;;;5.80;4.78;;;;;;;;;;4999768;28;20131;-74
2022/11/17 05:24:22;;;;;;;5.07;4.28;;;;;;;;;;5002987;28;20112;-74
2022/11/17 05:26:48;;;;;;;5.38;4.40;;;;;;;;;;5002577;28;20184;-74
2022/11/17 05:29:17;;;;;;;5.85;5.00;;;;;;;;;;4990959;28;20048;-73
2022/11/17 05:31:42;;;;;;;4.97;4.47;;;;;;;;;;5017754;28;20120;-73
2022/11/17 05:34:11;;;;;;;6.78;4.50;;;;;;;;;;5002117;28;20042;-74
2022/11/17 05:36:37;;;;;;;5.60;3.60;;;;;;;;;;5001616;28;20046;-74
2022/11/17 05:39:04;;;;;;;5.88;4.50;;;;;;;;;;5001864;28;20077;-74
2022/11/17 05:41:29;;;;;;;4.97;4.32;;;;;;;;;;4992559;28;20056;-74
2022/11/17 05:43:55;;;;;;;5.70;5.10;;;;;;;;;;5001945;28;20045;-74
2022/11/17 05:46:21;;;;;;;5.07;4.47;;;;;;;;;;5000793;28;20045;-73
2022/11/17 05:48:51;;;;;;;6.70;4.75;;;;;;;;;;5000813;28;20042;-75
2022/11/17 05:51:22;;;;;;;5.78;4.85;;;;;;;;;;4998871;28;20038;-75
2022/11/17 05:53:48;;;;;;;5.65;4.80;;;;;;;;;;5002340;28;20140;-74
2022/11/17 05:56:32;;;;;;;9.57;4.93;;;;;;;;;;5002093;28;20046;-76
2022/11/17 05:59:01;;;;;;;6.40;4.72;;;;;;;;;;5002225;28;20132;-75
2022/11/17 06:01:27;;;;;;;5.47;4.93;;;;;;;;;;4993181;28;20104;-75
2022/11/17 06:03:57;;;;;;;5.32;4.82;;;;;;;;;;4981450;28;20430;-75
2022/11/17 06:06:22;;;;;;;8.43;4.85;;;;;;;;;;5000609;28;20048;-75
2022/11/17 06:08:49;;;;;;;5.00;4.47;;;;;;;;;;4999454;28;20049;-74
2022/11/17 06:11:15;;;;;;;6.07;4.68;;;;;;;;;;5001403;28;20033;-74
2022/11/17 06:13:41;;;;;;;5.07;4.55;;;;;;;;;;4986797;28;20073;-74
2022/11/17 06:16:11;;;;;;;6.60;4.63;;;;;;;;;;4999232;28;20124;-75
2022/11/17 06:18:42;;;;;;;8.02;6.22;;;;;;;;;;4999237;28;20053;-74
2022/11/17 06:21:09;;;;;;;5.70;4.97;;;;;;;;;;4995220;28;20137;-75
2022/11/17 06:23:36;;;;;;;4.07;3.40;;;;;;;;;;4998405;28;20072;-75
2022/11/17 06:26:05;;;;;;;4.65;3.92;;;;;;;;;;4990772;28;20111;-75
2022/11/17 06:28:33;;;;;;;5.97;4.60;;;;;;;;;;4999230;28;20046;-75
2022/11/17 06:30:59;;;;;;;5.30;4.07;;;;;;;;;;4999901;28;20625;-75
2022/11/17 06:33:27;;;;;;;4.97;4.47;;;;;;;;;;4998588;28;20412;-75
2022/11/17 06:35:52;;;;;;;6.38;4.50;;;;;;;;;;4995745;28;20141;-75
2022/11/17 06:38:18;;;;;;;5.75;4.32;;;;;;;;;;5001379;28;20125;-75
2022/11/17 06:40:43;;;;;;;7.32;4.75;;;;;;;;;;4999915;28;20042;-75
2022/11/17 06:43:09;;;;;;;7.18;5.25;;;;;;;;;;5001960;28;20129;-74
2022/11/17 06:45:45;;;;;;;7.60;4.93;;;;;;;;;;5016864;28;20690;-75
2022/11/17 06:48:13;;;;;;;7.07;5.38;;;;;;;;;;5016288;28;20145;-75
2022/11/17 06:50:39;;;;;;;5.63;4.63;;;;;;;;;;5000661;28;20077;-74
2022/11/17 06:53:07;;;;;;;7.07;5.25;;;;;;;;;;4995445;28;20089;-72
2022/11/17 06:55:33;;;;;;;6.88;4.93;;;;;;;;;;4999740;28;20081;-72
2022/11/17 06:58:07;;;;;;;5.95;5.30;;;;;;;;;;4996960;28;20068;-75
2022/11/17 07:00:34;;;;;;;7.80;6.30;;;;;;;;;;4995805;28;20079;-73
2022/11/17 07:03:02;;;;;;;9.00;5.70;;;;;;;;;;5015862;28;20853;-73
2022/11/17 07:05:29;;;;;;;6.18;5.15;;;;;;;;;;5001722;28;20050;-71
2022/11/17 07:08:06;;;;;;;7.20;5.80;;;;;;;;;;4993289;28;20057;-73
2022/11/17 07:10:33;;;;;;;6.63;5.35;;;;;;;;;;4997713;28;20132;-73
2022/11/17 07:12:58;;;;;;;5.10;4.30;;;;;;;;;;5001043;28;20045;-72
2022/11/17 07:15:25;;;;;;;9.30;6.18;;;;;;;;;;5000743;28;20056;-71
2022/11/17 07:17:51;;;;;;;8.55;5.78;;;;;;;;;;4999799;28;20049;-73
2022/11/17 07:20:17;;;;;;;9.73;5.88;;;;;;;;;;5000507;28;20056;-73
2022/11/17 07:22:42;;;;;;;6.97;5.30;;;;;;;;;;4998862;28;20137;-75
2022/11/17 07:25:09;;;;;;;7.85;5.95;;;;;;;;;;5001117;28;20045;-74
2022/11/17 07:27:34;;;;;;;9.90;6.45;;;;;;;;;;5016696;28;20441;-72
2022/11/17 07:30:00;;;;;;;10.40;7.65;;;;;;;;;;5000216;28;20041;-73
2022/11/17 07:32:25;;;;;;;8.95;6.30;;;;;;;;;;5000039;28;20042;-72
2022/11/17 07:34:51;;;;;;;9.70;7.03;;;;;;;;;;5000481;28;20490;-75
2022/11/17 07:37:17;;;;;;;7.32;6.10;;;;;;;;;;5001719;28;20042;-74
2022/11/17 07:39:42;;;;;;;10.65;8.00;;;;;;;;;;5000643;28;21136;-75
2022/11/17 07:42:08;;;;;;;9.32;7.55;;;;;;;;;;4993756;28;20483;-75
2022/11/17 07:44:34;;;;;;;8.48;6.47;;;;;;;;;;4999748;28;20123;-76
2022/11/17 07:46:59;;;;;;;7.93;6.50;;;;;;;;;;4995986;28;20059;-76
2022/11/17 07:49:26;;;;;;;7.63;6.15;;;;;;;;;;4992678;28;20130;-75
2022/11/17 07:51:52;;;;;;;8.45;6.60;;;;;;;;;;4998666;28;20053;-74
2022/11/17 07:54:17;;;;;;;7.43;6.50;;;;;;;;;;4996604;28;20045;-74
2022/11/17 07:56:43;;;;;;;10.60;7.10;;;;;;;;;;4997177;28;20507;-75
2022/11/17 07:59:08;;;;;;;8.27;6.57;;;;;;;;;;4999814;28;20045;-76
2022/11/17 08:01:34;;;;;;;10.25;6.72;;;;;;;;;;4995837;28;20050;-74
2022/11/17 08:03:59;;;;;;;6.95;6.00;;;;;;;;;;4981276;28;20038;-74
2022/11/17 08:06:25;;;;;;;7.80;5.68;;;;;;;;;;4978946;28;20042;-73
2022/11/17 08:08:50;;;;;;;7.15;5.72;;;;;;;;;;4993569;28;20054;-75
2022/11/17 08:11:18;;;;;;;9.45;6.32;;;;;;;;;;4999457;28;20046;-74
2022/11/17 08:13:44;;;;;;;7.22;5.97;;;;;;;;;;4999768;28;20065;-72
2022/11/17 08:16:11;;;;;;;9.43;7.32;;;;;;;;;;4994629;28;20054;-70
2022/11/17 08:18:37;;;;;;;7.15;6.03;;;;;;;;;;4999662;28;20053;-74
2022/11/17 08:21:09;;;;;;;7.53;6.20;;;;;;;;;;4995401;28;20767;-72
2022/11/17 08:23:36;;;;;;;7.05;6.18;;;;;;;;;;5000240;28;20823;-74
2022/11/17 08:26:02;;;;;;;8.70;6.40;;;;;;;;;;4999824;28;20042;-72
2022/11/17 08:28:28;;;;;;;11.00;6.68;;;;;;;;;;4998720;28;20149;-73
2022/11/17 08:30:54;;;;;;;6.35;5.55;;;;;;;;;;4999925;28;20129;-77
2022/11/17 08:33:20;;;;;;;7.30;5.72;;;;;;;;;;4999843;28;20060;-74
2022/11/17 08:35:45;;;;;;;7.15;5.35;;;;;;;;;;4998871;28;20049;-74
2022/11/17 08:38:14;;;;;;;6.15;5.13;;;;;;;;;;5014279;28;20073;-71
2022/11/17 08:40:40;;;;;;;6.65;5.10;;;;;;;;;;5014427;28;20049;-74
2022/11/17 08:43:05;;;;;;;6.68;5.55;;;;;;;;;;5000440;28;20065;-71
2022/11/17 08:45:31;;;;;;;8.13;6.68;;;;;;;;;;5000374;28;20072;-72
2022/11/17 08:47:56;;;;;;;9.52;5.88;;;;;;;;;;4999563;28;20049;-72
2022/11/17 08:50:23;;;;;;;7.82;5.55;;;;;;;;;;5000081;28;20041;-73
2022/11/17 08:52:48;;;;;;;9.02;6.18;;;;;;;;;;4996739;28;20042;-72
2022/11/17 08:55:14;;;;;;;7.68;6.45;;;;;;;;;;5001662;28;20058;-73
2022/11/17 08:57:39;;;;;;;8.52;6.65;;;;;;;;;;5003893;28;20041;-69
2022/11/17 09:00:06;;;;;;;7.85;5.70;;;;;;;;;;5002512;28;20044;-73
2022/11/17 09:02:31;;;;;;;6.82;5.28;;;;;;;;;;5002697;28;20053;-70
2022/11/17 09:04:57;;;;;;;5.60;5.05;;;;;;;;;;5003926;28;20045;-72
2022/11/17 09:07:22;;;;;;;6.55;5.03;;;;;;;;;;5003889;28;20107;-73
2022/11/17 09:09:48;;;;;;;6.15;4.63;;;;;;;;;;5017579;28;20418;-75
2022/11/17 09:12:14;;;;;;;5.05;3.90;;;;;;;;;;5003301;28;20111;-73
2022/11/17 09:14:40;;;;;;;4.60;4.00;;;;;;;;;;5002903;28;20081;-72
2022/11/17 09:17:05;;;;;;;6.75;3.75;;;;;;;;;;5018144;28;20092;-74
2022/11/17 09:19:31;;;;;;;3.55;2.45;;;;;;;;;;5003557;28;20085;-74
2022/11/17 09:21:56;;;;;;;2.63;2.42;;;;;;;;;;5002442;28;20048;-72
2022/11/17 09:24:22;;;;;;;2.55;2.35;;;;;;;;;;5003065;28;20038;-74
2022/11/17 09:26:48;;;;;;;4.53;2.33;;;;;;;;;;5002511;28;20510;-76
2022/11/17 09:29:13;;;;;;;2.30;2.10;;;;;;;;;;5018463;28;20046;-72
2022/11/17 09:31:39;;;;;;;2.22;1.80;;;;;;;;;;5002145;28;20133;-72
2022/11/17 09:34:04;;;;;;;1.83;1.67;;;;;;;;;;5017894;28;20042;-74
2022/11/17 09:36:30;;;;;;;2.05;1.40;;;;;;;;;;5003087;28;20053;-74
2022/11/17 09:38:55;;;;;;;1.48;1.38;;;;;;;;;;5015747;28;20057;-75
2022/11/17 09:41:30;;;;;;;1.48;1.38;;;;;;;;;;5002993;28;20050;-75
2022/11/17 09:44:16;;;;;;;1.45;1.35;;;;;;;;;;5002092;28;20068;-72
2022/11/17 09:46:50;;;;;;;1.38;1.20;;;;;;;;;;5002114;28;20524;-74
2022/11/17 09:49:41;;;;;;;1.13;1.13;;;;;;;;;;5003218;28;20088;-70
2022/11/17 09:52:17;;;;;;;2.17;1.60;;;;;;;;;;5002874;28;20754;-73
2022/11/17 09:55:10;;;;;;;1.67;1.55;;;;;;;;;;5000956;28;20042;-73
2022/11/17 09:57:40;;;;;;;1.60;1.48;;;;;;;;;;4991056;28;20038;-73
2022/11/17 10:00:12;;;;;;;1.50;1.40;;;;;;;;;;5002527;28;20056;-71
2022/11/17 10:02:38;;;;;;;;;;;;;;;;;;5001666;28;20084;-74
2022/11/17 10:05:04;;;;;;;1.55;1.45;;;;;;;;;;5001966;28;20028;-73
2022/11/17 10:07:31;;;;;;;1.42;1.30;;;;;;;;;;5002050;28;20133;-71
2022/11/17 10:09:59;;;;;;;1.60;1.50;;;;;;;;;;5002502;28;20038;-73
2022/11/17 10:12:33;;;;;;;3.55;1.60;;;;;;;;;;5000903;28;20103;-74
2022/11/17 10:15:19;;;;;;;2.03;1.83;;;;;;;;;;5002090;28;20060;-75
2022/11/17 10:17:45;;;;;;;2.22;1.80;;;;;;;;;;5002215;28;20141;-74
2022/11/17 10:20:16;;;;;;;1.73;1.63;;;;;;;;;;5002065;28;20179;-72
2022/11/17 10:22:42;;;;;;;3.58;2.25;;;;;;;;;;5000074;28;20137;-74
2022/11/17 10:25:35;;;;;;;2.40;2.17;;;;;;;;;;4984381;28;20054;-72
2022/11/17 10:28:00;;;;;;;2.65;2.30;;;;;;;;;;4998095;28;20121;-71
2022/11/17 10:30:26;;;;;;;3.95;2.63;;;;;;;;;;5000888;28;20100;-73
2022/11/17 10:32:54;;;;;;;2.80;2.47;;;;;;;;;;5001784;28;20112;-71
2022/11/17 10:35:24;;;;;;;4.05;2.53;;;;;;;;;;5001904;28;20133;-72
2022/11/17 10:38:23;;;;;;;3.47;2.40;;;;;;;;;;5001253;28;20045;-73
2022/11/17 10:40:50;;;;;;;3.80;2.50;;;;;;;;;;4950235;28;20050;-72
2022/11/17 10:43:24;;;;;;;4.07;2.60;;;;;;;;;;5001409;28;20060;-73
2022/11/17 10:45:53;;;;;;;2.75;2.50;;;;;;;;;;5000493;28;20038;-71
2022/11/17 10:48:27;;;;;;;2.88;2.47;;;;;;;;;;5000312;28;20399;-72
2022/11/17 10:50:52;;;;;;;4.63;2.58;;;;;;;;;;5001175;28;20426;-72
2022/11/17 10:53:22;;;;;;;3.28;2.40;;;;;;;;;;5002067;28;20428;-73
2022/11/17 10:55:54;;;;;;;2.67;2.47;;;;;;;;;;5000940;28;20053;-70
2022/11/17 10:58:24;;;;;;;2.80;2.50;;;;;;;;;;5002169;28;21067;-70
2022/11/17 11:00:56;;;;;;;2.40;2.20;;;;;;;;;;5000888;28;20503;-70
2022/11/17 11:03:25;;;;;;;3.28;2.83;;;;;;;;;;5003389;28;20151;-69
2022/11/17 11:05:54;;;;;;;3.00;2.70;;;;;;;;;;5001962;28;20136;-69
2022/11/17 11:08:26;;;;;;;3.28;2.58;;;;;;;;;;4991088;28;20133;-69
2022/11/17 11:10:54;;;;;;;2.30;2.10;;;;;;;;;;4999706;28;20104;-69
2022/11/17 11:13:38;;;;;;;3.20;2.63;;;;;;;;;;5001167;28;20041;-70
2022/11/17 11:16:04;;;;;;;3.00;2.78;;;;;;;;;;5000546;28;20056;-69
2022/11/17 11:18:30;;;;;;;3.92;2.72;;;;;;;;;;5001652;28;20049;-69
2022/11/17 11:21:17;;;;;;;3.17;2.80;;;;;;;;;;5000097;28;20422;-70
2022/11/17 11:24:19;;;;;;;3.00;2.70;;;;;;;;;;5000068;28;20125;-69
2022/11/17 11:27:04;;;;;;;;;;;;;;;;;;4999947;28;20149;-70
2022/11/17 11:29:51;;;;;;;3.90;2.65;;;;;;;;;;5000680;28;19928;-68
2022/11/17 11:32:32;;;;;;;4.53;2.13;;;;;;;;;;5000498;28;20104;-68
2022/11/17 11:35:07;;;;;;;4.18;2.55;;;;;;;;;;5015067;28;20088;-68
2022/11/17 11:37:56;;;;;;;3.47;2.45;;;;;;;;;;5001808;28;20080;-70
2022/11/17 11:40:36;;;;;;;2.75;2.55;;;;;;;;;;5001885;28;20046;-70
2022/11/17 11:43:28;;;;;;;2.65;2.42;;;;;;;;;;5000353;28;20042;-70
2022/11/17 11:46:12;;;;;;;2.90;2.65;;;;;;;;;;4992130;28;20056;-68
2022/11/17 11:48:39;;;;;;;4.03;2.42;;;;;;;;;;5000127;28;20072;-69
2022/11/17 11:51:17;;;;;;;2.97;2.42;;;;;;;;;;4999376;28;20076;-69
2022/11/17 11:53:57;;;;;;;3.47;2.80;;;;;;;;;;4997582;28;20046;-68
2022/11/17 11:56:41;;;;;;;4.43;2.65;;;;;;;;;;4998088;28;20537;-70
2022/11/17 11:59:39;;;;;;;5.43;2.40;;;;;;;;;;4997232;28;20123;-68
2022/11/17 12:02:27;;;;;;;2.88;2.60;;;;;;;;;;4999318;28;20057;-69
2022/11/17 12:04:59;;;;;;;2.83;2.50;;;;;;;;;;4998978;28;20057;-70
2022/11/17 12:07:45;;;;;;;2.90;2.60;;;;;;;;;;5000367;28;20054;-69
2022/11/17 12:10:10;;;;;;;3.08;2.80;;;;;;;;;;4999099;28;20129;-71
2022/11/17 12:12:38;;;;;;;3.58;2.80;;;;;;;;;;4999374;28;20144;-70
2022/11/17 12:15:30;;;;;;;4.25;2.97;;;;;;;;;;5000669;28;20417;-70
2022/11/17 12:18:00;;;;;;;4.32;2.80;;;;;;;;;;4999938;28;20046;-70
2022/11/17 12:20:37;;;;;;;3.05;2.80;;;;;;;;;;4999757;28;20049;-69
2022/11/17 12:23:12;;;;;;;3.30;3.00;;;;;;;;;;5000284;28;20064;-69
2022/11/17 12:25:44;;;;;;;3.00;2.72;;;;;;;;;;5000306;28;20050;-71
2022/11/17 12:28:31;;;;;;;2.90;2.50;;;;;;;;;;4998486;28;20499;-69
2022/11/17 12:31:05;;;;;;;3.25;2.95;;;;;;;;;;5003590;28;20049;-69
2022/11/17 12:33:49;;;;;;;4.78;2.97;;;;;;;;;;5004651;28;20060;-69
2022/11/17 12:36:25;;;;;;;5.20;3.05;;;;;;;;;;5004389;28;20145;-70
2022/11/17 12:38:51;;;;;;;3.58;3.28;;;;;;;;;;5003381;28;20046;-69
2022/11/17 12:41:48;;;;;;;4.10;3.08;;;;;;;;;;4998165;28;20048;-70
2022/11/17 12:44:48;;;;;;;3.65;3.28;;;;;;;;;;5004911;28;20972;-70
2022/11/17 12:47:21;;;;;;;4.63;3.80;;;;;;;;;;5001415;28;20058;-70
2022/11/17 12:50:05;;;;;;;5.70;3.65;;;;;;;;;;4999276;28;20038;-70
2022/11/17 12:52:43;;;;;;;6.97;4.15;;;;;;;;;;5004731;28;20058;-70
2022/11/17 12:55:12;;;;;;;5.03;4.15;;;;;;;;;;4967824;28;20502;-69
2022/11/17 12:57:38;;;;;;;4.43;3.95;;;;;;;;;;5003672;28;20054;-69
2022/11/17 13:00:18;;;;;;;4.63;3.38;;;;;;;;;;5003554;28;20131;-71
2022/11/17 13:02:57;;;;;;;4.50;2.97;;;;;;;;;;5001545;28;20129;-72
2022/11/17 13:05:29;;;;;;;4.85;3.35;;;;;;;;;;5002277;28;20084;-71
2022/11/17 13:08:09;;;;;;;2.93;2.70;;;;;;;;;;5002537;28;20042;-71
2022/11/17 13:10:35;;;;;;;4.25;2.60;;;;;;;;;;4997624;28;20696;-69
2022/11/17 13:13:22;;;;;;;3.25;2.53;;;;;;;;;;5001187;28;20053;-71
2022/11/17 13:15:50;;;;;;;5.20;2.58;;;;;;;;;;5016747;28;20151;-70
2022/11/17 13:18:36;;;;;;;3.13;2.45;;;;;;;;;;4999999;28;20045;-72
2022/11/17 13:21:03;;;;;;;2.40;2.20;;;;;;;;;;5000503;28;20453;-69
2022/11/17 13:23:31;;;;;;;5.05;2.15;;;;;;;;;;5000382;28;20172;-71
2022/11/17 13:26:15;;;;;;;3.13;2.30;;;;;;;;;;5002180;28;20050;-71
2022/11/17 13:28:43;;;;;;;5.57;2.65;;;;;;;;;;5001889;28;20045;-71
2022/11/17 13:31:21;;;;;;;4.75;1.98;;;;;;;;;;5002009;28;20042;-70
2022/11/17 13:34:10;;;;;;;2.10;1.75;;;;;;;;;;5002041;28;20049;-70
2022/11/17 13:36:50;;;;;;;3.50;1.85;;;;;;;;;;5002453;28;20056;-71
2022/11/17 13:39:16;;;;;;;2.42;1.77;;;;;;;;;;5002901;28;20128;-71
2022/11/17 13:41:42;;;;;;;1.75;1.42;;;;;;;;;;5002267;28;20525;-71
2022/11/17 13:44:13;;;;;;;1.52;1.40;;;;;;;;;;5002796;28;20041;-70
2022/11/17 13:46:39;;;;;;;2.53;1.52;;;;;;;;;;5002100;28;20049;-71
2022/11/17 13:49:34;;;;;;;4.00;1.40;;;;;;;;;;5003043;28;20469;-71
2022/11/17 13:52:01;;;;;;;2.47;1.70;;;;;;;;;;4993719;28;20502;-70
2022/11/17 13:54:26;;;;;;;2.45;1.40;;;;;;;;;;5004375;28;20557;-71
2022/11/17 13:57:02;;;;;;;3.60;1.75;;;;;;;;;;5016448;28;20052;-70
2022/11/17 13:59:31;;;;;;;6.18;1.90;;;;;;;;;;5003076;28;20065;-71
2022/11/17 14:02:15;;;;;;;2.65;1.65;;;;;;;;;;5002883;28;20046;-71
2022/11/17 14:04:41;;;;;;;1.70;1.60;;;;;;;;;;5002371;28;20050;-70
2022/11/17 14:07:10;;;;;;;2.42;1.80;;;;;;;;;;5003654;28;20049;-70
2022/11/17 14:09:36;;;;;;;4.95;1.90;;;;;;;;;;5003649;28;20110;-71
2022/11/17 14:12:08;;;;;;;2.30;1.63;;;;;;;;;;5003507;28;20046;-70
2022/11/17 14:14:37;;;;;;;1.80;1.30;;;;;;;;;;5002070;28;20423;-72
2022/11/17 14:17:18;;;;;;;3.35;1.70;;;;;;;;;;4981789;28;20100;-71
2022/11/17 14:19:43;;;;;;;6.15;1.63;;;;;;;;;;5004561;28;20053;-71
2022/11/17 14:22:22;;;;;;;3.78;1.80;;;;;;;;;;4998638;28;20042;-69
2022/11/17 14:24:49;;;;;;;3.78;1.90;;;;;;;;;;4987256;28;20579;-71
2022/11/17 14:27:30;;;;;;;4.85;2.35;;;;;;;;;;5001547;28;20045;-70
2022/11/17 14:29:56;;;;;;;2.92;2.33;;;;;;;;;;5001388;28;20670;-70
2022/11/17 14:32:21;;;;;;;4.30;2.15;;;;;;;;;;5000479;28;20038;-70
2022/11/17 14:34:46;;;;;;;6.07;2.55;;;;;;;;;;5000043;28;20038;-70
2022/11/17 14:37:12;;;;;;;4.20;2.20;;;;;;;;;;4998009;28;20053;-68
2022/11/17 14:39:37;;;;;;;4.05;2.33;;;;;;;;;;4997503;28;20045;-69
2022/11/17 14:42:03;;;;;;;5.22;2.67;;;;;;;;;;4996806;28;20069;-69
2022/11/17 14:44:28;;;;;;;4.32;2.33;;;;;;;;;;4999974;28;20096;-70
2022/11/17 14:46:53;;;;;;;4.13;2.60;;;;;;;;;;4998314;28;20053;-69
2022/11/17 14:49:19;;;;;;;7.10;3.15;;;;;;;;;;4998191;28;20046;-69
2022/11/17 14:51:48;;;;;;;6.43;3.75;;;;;;;;;;4994917;28;20061;-68
2022/11/17 14:54:13;;;;;;;6.07;3.85;;;;;;;;;;4998394;28;20192;-68
2022/11/17 14:56:39;;;;;;;5.85;4.13;;;;;;;;;;4998811;28;20817;-68
2022/11/17 14:59:04;;;;;;;6.30;4.00;;;;;;;;;;5015675;28;20053;-70
2022/11/17 15:01:33;;;;;;;9.10;4.05;;;;;;;;;;4998752;28;20046;-68
2022/11/17 15:04:02;;;;;;;6.38;3.38;;;;;;;;;;5000160;28;20045;-70
2022/11/17 15:06:28;;;;;;;7.57;4.05;;;;;;;;;;4999110;28;20065;-69
2022/11/17 15:08:56;;;;;;;6.22;4.00;;;;;;;;;;4997572;28;20053;-68
2022/11/17 15:11:22;;;;;;;6.88;4.68;;;;;;;;;;4996668;28;20056;-69
2022/11/17 15:13:48;;;;;;;12.93;4.70;;;;;;;;;;4996909;28;20423;-70
2022/11/17 15:16:14;;;;;;;6.72;3.70;;;;;;;;;;4997395;28;20521;-69
2022/11/17 15:18:42;;;;;;;5.80;4.28;;;;;;;;;;4998671;28;20129;-67
2022/11/17 15:21:09;;;;;;;6.07;3.67;;;;;;;;;;4988073;28;20127;-67
2022/11/17 15:23:38;;;;;;;5.25;3.63;;;;;;;;;;4995465;28;20041;-68
2022/11/17 15:26:06;;;;;;;6.00;3.95;;;;;;;;;;4996129;28;20046;-67
2022/11/17 15:28:31;;;;;;;5.13;3.88;;;;;;;;;;4989475;28;20058;-69
2022/11/17 15:30:57;;;;;;;7.32;3.90;;;;;;;;;;4995672;28;20046;-70